sensor_id;sensor_type;location;lat;lon;timestamp;P1;durP1;ratioP1;P2;durP2;ratioP2
46318;SDS011;32042;50.916;2.926;2023-07-29T00:02:11;4.05;;;2.40;;
46318;SDS011;32042;50.916;2.926;2023-07-29T00:04:37;2.78;;;2.40;;
46318;SDS011;32042;50.916;2.926;2023-07-29T00:07:03;3.63;;;2.88;;
46318;SDS011;32042;50.916;2.926;2023-07-29T00:09:29;3.60;;;2.75;;
46318;SDS011;32042;50.916;2.926;2023-07-29T00:11:55;3.20;;;2.47;;
46318;SDS011;32042;50.916;2.926;2023-07-29T00:14:21;4.20;;;2.53;;
46318;SDS011;32042;50.916;2.926;2023-07-29T00:16:47;2.55;;;2.35;;
46318;SDS011;32042;50.916;2.926;2023-07-29T00:19:13;2.80;;;2.55;;
46318;SDS011;32042;50.916;2.926;2023-07-29T00:21:39;3.65;;;2.60;;
46318;SDS011;32042;50.916;2.926;2023-07-29T00:24:06;2.08;;;1.88;;
46318;SDS011;32042;50.916;2.926;2023-07-29T00:26:32;2.53;;;2.33;;
46318;SDS011;32042;50.916;2.926;2023-07-29T00:28:58;2.53;;;2.22;;
46318;SDS011;32042;50.916;2.926;2023-07-29T00:31:24;2.65;;;2.33;;
46318;SDS011;32042;50.916;2.926;2023-07-29T00:33:50;4.07;;;2.45;;
46318;SDS011;32042;50.916;2.926;2023-07-29T00:36:17;2.92;;;2.30;;
46318;SDS011;32042;50.916;2.926;2023-07-29T00:38:44;4.00;;;2.45;;
46318;SDS011;32042;50.916;2.926;2023-07-29T00:41:10;2.70;;;2.30;;
46318;SDS011;32042;50.916;2.926;2023-07-29T00:43:38;2.50;;;2.10;;
46318;SDS011;32042;50.916;2.926;2023-07-29T00:46:04;2.60;;;2.13;;
46318;SDS011;32042;50.916;2.926;2023-07-29T00:48:31;2.88;;;1.60;;
46318;SDS011;32042;50.916;2.926;2023-07-29T00:50:57;4.63;;;2.20;;
46318;SDS011;32042;50.916;2.926;2023-07-29T00:53:23;2.55;;;2.35;;
46318;SDS011;32042;50.916;2.926;2023-07-29T00:55:49;2.95;;;2.17;;
46318;SDS011;32042;50.916;2.926;2023-07-29T00:58:15;3.53;;;2.17;;
46318;SDS011;32042;50.916;2.926;2023-07-29T01:00:41;3.15;;;2.22;;
46318;SDS011;32042;50.916;2.926;2023-07-29T01:03:07;3.08;;;2.08;;
46318;SDS011;32042;50.916;2.926;2023-07-29T01:05:40;2.75;;;2.22;;
46318;SDS011;32042;50.916;2.926;2023-07-29T01:08:12;2.35;;;2.10;;
46318;SDS011;32042;50.916;2.926;2023-07-29T01:13:49;3.63;;;2.95;;
46318;SDS011;32042;50.916;2.926;2023-07-29T01:16:50;3.92;;;2.45;;
46318;SDS011;32042;50.916;2.926;2023-07-29T01:18:56;2.75;;;2.30;;
46318;SDS011;32042;50.916;2.926;2023-07-29T01:21:23;3.45;;;2.30;;
46318;SDS011;32042;50.916;2.926;2023-07-29T01:23:52;3.72;;;2.25;;
46318;SDS011;32042;50.916;2.926;2023-07-29T01:26:18;4.47;;;2.80;;
46318;SDS011;32042;50.916;2.926;2023-07-29T01:28:44;3.05;;;2.70;;
46318;SDS011;32042;50.916;2.926;2023-07-29T01:31:12;3.35;;;2.30;;
46318;SDS011;32042;50.916;2.926;2023-07-29T01:33:40;3.55;;;2.58;;
46318;SDS011;32042;50.916;2.926;2023-07-29T01:36:11;4.30;;;2.55;;
46318;SDS011;32042;50.916;2.926;2023-07-29T01:38:38;3.80;;;2.95;;
46318;SDS011;32042;50.916;2.926;2023-07-29T01:41:06;3.83;;;2.65;;
46318;SDS011;32042;50.916;2.926;2023-07-29T01:43:33;4.88;;;2.80;;
46318;SDS011;32042;50.916;2.926;2023-07-29T01:46:00;5.68;;;2.75;;
46318;SDS011;32042;50.916;2.926;2023-07-29T01:48:26;2.85;;;2.50;;
46318;SDS011;32042;50.916;2.926;2023-07-29T01:50:55;4.03;;;2.92;;
46318;SDS011;32042;50.916;2.926;2023-07-29T01:53:21;3.38;;;2.65;;
46318;SDS011;32042;50.916;2.926;2023-07-29T01:55:47;3.17;;;2.58;;
46318;SDS011;32042;50.916;2.926;2023-07-29T01:58:13;5.28;;;2.80;;
46318;SDS011;32042;50.916;2.926;2023-07-29T02:00:39;3.80;;;2.88;;
46318;SDS011;32042;50.916;2.926;2023-07-29T02:03:05;6.43;;;2.90;;
46318;SDS011;32042;50.916;2.926;2023-07-29T02:05:31;8.15;;;3.17;;
46318;SDS011;32042;50.916;2.926;2023-07-29T02:07:57;3.33;;;2.50;;
46318;SDS011;32042;50.916;2.926;2023-07-29T02:10:23;4.25;;;2.95;;
46318;SDS011;32042;50.916;2.926;2023-07-29T02:12:50;5.05;;;2.50;;
46318;SDS011;32042;50.916;2.926;2023-07-29T02:15:16;3.35;;;2.40;;
46318;SDS011;32042;50.916;2.926;2023-07-29T02:17:42;3.45;;;3.13;;
46318;SDS011;32042;50.916;2.926;2023-07-29T02:20:08;4.95;;;2.80;;
46318;SDS011;32042;50.916;2.926;2023-07-29T02:22:35;3.85;;;3.00;;
46318;SDS011;32042;50.916;2.926;2023-07-29T02:25:02;4.15;;;2.60;;
46318;SDS011;32042;50.916;2.926;2023-07-29T02:27:28;3.45;;;2.80;;
46318;SDS011;32042;50.916;2.926;2023-07-29T02:29:54;5.05;;;2.90;;
46318;SDS011;32042;50.916;2.926;2023-07-29T02:32:21;3.92;;;2.60;;
46318;SDS011;32042;50.916;2.926;2023-07-29T02:34:48;3.67;;;2.88;;
46318;SDS011;32042;50.916;2.926;2023-07-29T02:37:15;3.10;;;2.60;;
46318;SDS011;32042;50.916;2.926;2023-07-29T02:39:42;2.95;;;2.42;;
46318;SDS011;32042;50.916;2.926;2023-07-29T02:42:09;4.82;;;2.80;;
46318;SDS011;32042;50.916;2.926;2023-07-29T02:44:35;4.03;;;2.97;;
46318;SDS011;32042;50.916;2.926;2023-07-29T02:47:02;4.68;;;2.95;;
46318;SDS011;32042;50.916;2.926;2023-07-29T02:49:29;6.70;;;3.53;;
46318;SDS011;32042;50.916;2.926;2023-07-29T02:51:55;3.83;;;2.58;;
46318;SDS011;32042;50.916;2.926;2023-07-29T02:54:22;4.60;;;3.65;;
46318;SDS011;32042;50.916;2.926;2023-07-29T02:56:49;3.60;;;3.28;;
46318;SDS011;32042;50.916;2.926;2023-07-29T02:59:15;5.40;;;3.35;;
46318;SDS011;32042;50.916;2.926;2023-07-29T03:01:41;5.50;;;2.95;;
46318;SDS011;32042;50.916;2.926;2023-07-29T03:04:07;3.30;;;2.60;;
46318;SDS011;32042;50.916;2.926;2023-07-29T03:06:33;4.80;;;3.00;;
46318;SDS011;32042;50.916;2.926;2023-07-29T03:08:59;6.45;;;2.85;;
46318;SDS011;32042;50.916;2.926;2023-07-29T03:11:25;4.68;;;2.80;;
46318;SDS011;32042;50.916;2.926;2023-07-29T03:13:52;3.33;;;3.00;;
46318;SDS011;32042;50.916;2.926;2023-07-29T03:16:18;4.13;;;3.00;;
46318;SDS011;32042;50.916;2.926;2023-07-29T03:18:44;3.95;;;3.05;;
46318;SDS011;32042;50.916;2.926;2023-07-29T03:21:10;16.17;;;3.13;;
46318;SDS011;32042;50.916;2.926;2023-07-29T03:23:37;5.38;;;3.13;;
46318;SDS011;32042;50.916;2.926;2023-07-29T03:26:03;3.90;;;2.88;;
46318;SDS011;32042;50.916;2.926;2023-07-29T03:28:35;4.95;;;2.72;;
46318;SDS011;32042;50.916;2.926;2023-07-29T03:31:01;6.80;;;3.42;;
46318;SDS011;32042;50.916;2.926;2023-07-29T03:33:28;3.88;;;2.40;;
46318;SDS011;32042;50.916;2.926;2023-07-29T03:35:54;2.72;;;2.22;;
46318;SDS011;32042;50.916;2.926;2023-07-29T03:38:20;2.90;;;2.58;;
46318;SDS011;32042;50.916;2.926;2023-07-29T03:40:46;4.15;;;2.67;;
46318;SDS011;32042;50.916;2.926;2023-07-29T03:43:12;4.28;;;2.72;;
46318;SDS011;32042;50.916;2.926;2023-07-29T03:45:39;3.85;;;2.75;;
46318;SDS011;32042;50.916;2.926;2023-07-29T03:48:05;4.32;;;2.60;;
46318;SDS011;32042;50.916;2.926;2023-07-29T03:50:33;4.53;;;2.90;;
46318;SDS011;32042;50.916;2.926;2023-07-29T03:52:59;3.05;;;2.78;;
46318;SDS011;32042;50.916;2.926;2023-07-29T03:55:25;2.75;;;2.47;;
46318;SDS011;32042;50.916;2.926;2023-07-29T03:57:51;3.00;;;2.60;;
46318;SDS011;32042;50.916;2.926;2023-07-29T04:00:17;3.65;;;3.00;;
46318;SDS011;32042;50.916;2.926;2023-07-29T04:02:43;3.65;;;2.78;;
46318;SDS011;32042;50.916;2.926;2023-07-29T04:05:10;3.83;;;2.88;;
46318;SDS011;32042;50.916;2.926;2023-07-29T04:07:36;7.97;;;3.45;;
46318;SDS011;32042;50.916;2.926;2023-07-29T04:10:03;4.75;;;3.28;;
46318;SDS011;32042;50.916;2.926;2023-07-29T04:12:29;3.80;;;3.20;;
46318;SDS011;32042;50.916;2.926;2023-07-29T04:14:55;4.18;;;2.97;;
46318;SDS011;32042;50.916;2.926;2023-07-29T04:17:21;3.53;;;3.22;;
46318;SDS011;32042;50.916;2.926;2023-07-29T04:19:47;4.07;;;2.90;;
46318;SDS011;32042;50.916;2.926;2023-07-29T04:22:14;4.60;;;3.10;;
46318;SDS011;32042;50.916;2.926;2023-07-29T04:24:40;4.50;;;3.45;;
46318;SDS011;32042;50.916;2.926;2023-07-29T04:27:06;4.47;;;2.83;;
46318;SDS011;32042;50.916;2.926;2023-07-29T04:29:32;4.28;;;3.03;;
46318;SDS011;32042;50.916;2.926;2023-07-29T04:32:00;4.07;;;2.85;;
46318;SDS011;32042;50.916;2.926;2023-07-29T04:34:26;5.60;;;2.95;;
46318;SDS011;32042;50.916;2.926;2023-07-29T04:36:52;4.00;;;3.10;;
46318;SDS011;32042;50.916;2.926;2023-07-29T04:39:18;5.88;;;2.90;;
46318;SDS011;32042;50.916;2.926;2023-07-29T04:41:44;2.97;;;2.72;;
46318;SDS011;32042;50.916;2.926;2023-07-29T04:44:11;5.50;;;2.83;;
46318;SDS011;32042;50.916;2.926;2023-07-29T04:46:37;5.32;;;2.85;;
46318;SDS011;32042;50.916;2.926;2023-07-29T04:49:03;6.25;;;3.80;;
46318;SDS011;32042;50.916;2.926;2023-07-29T04:51:29;6.55;;;3.00;;
46318;SDS011;32042;50.916;2.926;2023-07-29T04:53:56;5.45;;;2.85;;
46318;SDS011;32042;50.916;2.926;2023-07-29T04:56:23;5.30;;;3.10;;
46318;SDS011;32042;50.916;2.926;2023-07-29T04:58:49;4.57;;;2.60;;
46318;SDS011;32042;50.916;2.926;2023-07-29T05:01:15;6.10;;;3.05;;
46318;SDS011;32042;50.916;2.926;2023-07-29T05:03:41;4.38;;;2.72;;
46318;SDS011;32042;50.916;2.926;2023-07-29T05:06:07;3.53;;;2.25;;
46318;SDS011;32042;50.916;2.926;2023-07-29T05:08:33;6.15;;;3.00;;
46318;SDS011;32042;50.916;2.926;2023-07-29T05:10:59;3.90;;;2.60;;
46318;SDS011;32042;50.916;2.926;2023-07-29T05:13:25;3.22;;;2.25;;
46318;SDS011;32042;50.916;2.926;2023-07-29T05:15:52;3.30;;;2.15;;
46318;SDS011;32042;50.916;2.926;2023-07-29T05:18:18;4.78;;;2.83;;
46318;SDS011;32042;50.916;2.926;2023-07-29T05:20:44;3.10;;;2.20;;
46318;SDS011;32042;50.916;2.926;2023-07-29T05:23:10;4.22;;;2.05;;
46318;SDS011;32042;50.916;2.926;2023-07-29T05:25:36;3.28;;;2.28;;
46318;SDS011;32042;50.916;2.926;2023-07-29T05:28:02;1.92;;;1.83;;
46318;SDS011;32042;50.916;2.926;2023-07-29T05:30:29;2.30;;;1.92;;
46318;SDS011;32042;50.916;2.926;2023-07-29T05:33:03;1.75;;;1.65;;
46318;SDS011;32042;50.916;2.926;2023-07-29T05:35:35;1.95;;;1.75;;
46318;SDS011;32042;50.916;2.926;2023-07-29T05:38:01;3.10;;;2.10;;
46318;SDS011;32042;50.916;2.926;2023-07-29T05:40:28;2.08;;;1.77;;
46318;SDS011;32042;50.916;2.926;2023-07-29T05:42:54;2.80;;;1.83;;
46318;SDS011;32042;50.916;2.926;2023-07-29T05:45:21;2.00;;;1.70;;
46318;SDS011;32042;50.916;2.926;2023-07-29T05:47:47;3.08;;;1.88;;
46318;SDS011;32042;50.916;2.926;2023-07-29T05:50:13;3.00;;;1.90;;
46318;SDS011;32042;50.916;2.926;2023-07-29T05:52:39;2.63;;;1.65;;
46318;SDS011;32042;50.916;2.926;2023-07-29T05:55:05;3.75;;;2.10;;
46318;SDS011;32042;50.916;2.926;2023-07-29T05:57:31;1.90;;;1.77;;
46318;SDS011;32042;50.916;2.926;2023-07-29T05:59:57;3.90;;;2.10;;
46318;SDS011;32042;50.916;2.926;2023-07-29T06:02:23;2.85;;;1.98;;
46318;SDS011;32042;50.916;2.926;2023-07-29T06:04:49;2.33;;;1.65;;
46318;SDS011;32042;50.916;2.926;2023-07-29T06:07:15;4.47;;;1.73;;
46318;SDS011;32042;50.916;2.926;2023-07-29T06:09:41;3.97;;;1.92;;
46318;SDS011;32042;50.916;2.926;2023-07-29T06:12:08;2.72;;;1.90;;
46318;SDS011;32042;50.916;2.926;2023-07-29T06:14:34;2.25;;;1.65;;
46318;SDS011;32042;50.916;2.926;2023-07-29T06:17:00;2.28;;;1.70;;
46318;SDS011;32042;50.916;2.926;2023-07-29T06:19:26;1.83;;;1.50;;
46318;SDS011;32042;50.916;2.926;2023-07-29T06:21:54;2.47;;;1.75;;
46318;SDS011;32042;50.916;2.926;2023-07-29T06:24:20;5.18;;;1.58;;
46318;SDS011;32042;50.916;2.926;2023-07-29T06:26:46;3.50;;;1.90;;
46318;SDS011;32042;50.916;2.926;2023-07-29T06:29:12;2.50;;;1.50;;
46318;SDS011;32042;50.916;2.926;2023-07-29T06:31:38;3.60;;;1.95;;
46318;SDS011;32042;50.916;2.926;2023-07-29T06:34:04;3.50;;;1.75;;
46318;SDS011;32042;50.916;2.926;2023-07-29T06:36:31;3.20;;;1.70;;
46318;SDS011;32042;50.916;2.926;2023-07-29T06:38:57;2.35;;;1.90;;
46318;SDS011;32042;50.916;2.926;2023-07-29T06:41:23;3.63;;;2.28;;
46318;SDS011;32042;50.916;2.926;2023-07-29T06:43:49;4.57;;;1.60;;
46318;SDS011;32042;50.916;2.926;2023-07-29T06:46:15;5.18;;;1.60;;
46318;SDS011;32042;50.916;2.926;2023-07-29T06:48:41;1.67;;;1.52;;
46318;SDS011;32042;50.916;2.926;2023-07-29T06:51:07;3.38;;;1.70;;
46318;SDS011;32042;50.916;2.926;2023-07-29T06:53:33;2.65;;;1.58;;
46318;SDS011;32042;50.916;2.926;2023-07-29T06:55:59;2.20;;;1.27;;
46318;SDS011;32042;50.916;2.926;2023-07-29T06:58:25;3.00;;;1.67;;
46318;SDS011;32042;50.916;2.926;2023-07-29T07:00:52;1.40;;;1.30;;
46318;SDS011;32042;50.916;2.926;2023-07-29T07:03:19;2.42;;;1.33;;
46318;SDS011;32042;50.916;2.926;2023-07-29T07:05:45;2.15;;;1.50;;
46318;SDS011;32042;50.916;2.926;2023-07-29T07:08:11;3.42;;;1.63;;
46318;SDS011;32042;50.916;2.926;2023-07-29T07:10:37;3.40;;;1.30;;
46318;SDS011;32042;50.916;2.926;2023-07-29T07:13:03;1.60;;;1.50;;
46318;SDS011;32042;50.916;2.926;2023-07-29T07:15:29;4.40;;;1.38;;
46318;SDS011;32042;50.916;2.926;2023-07-29T07:17:55;3.33;;;1.33;;
46318;SDS011;32042;50.916;2.926;2023-07-29T07:20:21;1.60;;;1.50;;
46318;SDS011;32042;50.916;2.926;2023-07-29T07:22:47;2.47;;;1.20;;
46318;SDS011;32042;50.916;2.926;2023-07-29T07:25:13;2.15;;;1.40;;
46318;SDS011;32042;50.916;2.926;2023-07-29T07:27:39;1.95;;;1.38;;
46318;SDS011;32042;50.916;2.926;2023-07-29T07:30:05;2.38;;;1.25;;
46318;SDS011;32042;50.916;2.926;2023-07-29T07:32:31;3.47;;;1.33;;
46318;SDS011;32042;50.916;2.926;2023-07-29T07:34:57;3.13;;;1.33;;
46318;SDS011;32042;50.916;2.926;2023-07-29T07:37:23;3.78;;;1.80;;
46318;SDS011;32042;50.916;2.926;2023-07-29T07:39:49;3.72;;;1.75;;
46318;SDS011;32042;50.916;2.926;2023-07-29T07:42:15;4.85;;;1.90;;
46318;SDS011;32042;50.916;2.926;2023-07-29T07:44:41;2.88;;;1.85;;
46318;SDS011;32042;50.916;2.926;2023-07-29T07:47:07;2.00;;;1.42;;
46318;SDS011;32042;50.916;2.926;2023-07-29T07:49:33;2.50;;;1.50;;
46318;SDS011;32042;50.916;2.926;2023-07-29T07:51:59;2.85;;;1.77;;
46318;SDS011;32042;50.916;2.926;2023-07-29T07:54:25;2.08;;;1.65;;
46318;SDS011;32042;50.916;2.926;2023-07-29T07:56:51;2.55;;;1.80;;
46318;SDS011;32042;50.916;2.926;2023-07-29T07:59:17;3.47;;;2.08;;
46318;SDS011;32042;50.916;2.926;2023-07-29T08:01:44;3.05;;;1.83;;
46318;SDS011;32042;50.916;2.926;2023-07-29T08:04:10;1.95;;;1.75;;
46318;SDS011;32042;50.916;2.926;2023-07-29T08:06:36;4.60;;;1.98;;
46318;SDS011;32042;50.916;2.926;2023-07-29T08:09:02;2.25;;;2.05;;
46318;SDS011;32042;50.916;2.926;2023-07-29T08:11:28;3.72;;;1.88;;
46318;SDS011;32042;50.916;2.926;2023-07-29T08:13:55;2.63;;;2.00;;
46318;SDS011;32042;50.916;2.926;2023-07-29T08:16:21;2.42;;;2.08;;
46318;SDS011;32042;50.916;2.926;2023-07-29T08:18:48;2.40;;;2.20;;
46318;SDS011;32042;50.916;2.926;2023-07-29T08:21:14;1.80;;;1.58;;
46318;SDS011;32042;50.916;2.926;2023-07-29T08:23:40;1.60;;;1.50;;
46318;SDS011;32042;50.916;2.926;2023-07-29T08:26:06;1.70;;;1.52;;
46318;SDS011;32042;50.916;2.926;2023-07-29T08:28:33;4.40;;;1.63;;
46318;SDS011;32042;50.916;2.926;2023-07-29T08:30:59;2.95;;;1.60;;
46318;SDS011;32042;50.916;2.926;2023-07-29T08:33:26;1.40;;;1.30;;
46318;SDS011;32042;50.916;2.926;2023-07-29T08:35:52;3.83;;;1.55;;
46318;SDS011;32042;50.916;2.926;2023-07-29T08:38:18;1.95;;;1.60;;
46318;SDS011;32042;50.916;2.926;2023-07-29T08:40:58;2.40;;;1.45;;
46318;SDS011;32042;50.916;2.926;2023-07-29T08:43:32;4.22;;;1.45;;
46318;SDS011;32042;50.916;2.926;2023-07-29T08:45:58;7.47;;;1.58;;
46318;SDS011;32042;50.916;2.926;2023-07-29T08:48:40;3.65;;;1.80;;
46318;SDS011;32042;50.916;2.926;2023-07-29T08:51:07;1.70;;;1.55;;
46318;SDS011;32042;50.916;2.926;2023-07-29T08:53:34;2.90;;;1.38;;
46318;SDS011;32042;50.916;2.926;2023-07-29T08:56:00;2.70;;;1.63;;
46318;SDS011;32042;50.916;2.926;2023-07-29T08:58:26;4.40;;;1.85;;
46318;SDS011;32042;50.916;2.926;2023-07-29T09:00:53;1.65;;;1.52;;
46318;SDS011;32042;50.916;2.926;2023-07-29T09:03:19;2.63;;;1.50;;
46318;SDS011;32042;50.916;2.926;2023-07-29T09:05:45;1.38;;;1.27;;
46318;SDS011;32042;50.916;2.926;2023-07-29T09:08:11;1.63;;;1.52;;
46318;SDS011;32042;50.916;2.926;2023-07-29T09:10:37;1.30;;;1.20;;
46318;SDS011;32042;50.916;2.926;2023-07-29T09:13:04;1.50;;;1.40;;
46318;SDS011;32042;50.916;2.926;2023-07-29T09:15:31;2.05;;;1.42;;
46318;SDS011;32042;50.916;2.926;2023-07-29T09:17:58;2.10;;;1.45;;
46318;SDS011;32042;50.916;2.926;2023-07-29T09:20:25;2.03;;;1.90;;
46318;SDS011;32042;50.916;2.926;2023-07-29T09:22:51;2.75;;;1.75;;
46318;SDS011;32042;50.916;2.926;2023-07-29T09:25:22;2.10;;;1.90;;
46318;SDS011;32042;50.916;2.926;2023-07-29T09:27:48;2.28;;;1.40;;
46318;SDS011;32042;50.916;2.926;2023-07-29T09:30:17;1.42;;;1.33;;
46318;SDS011;32042;50.916;2.926;2023-07-29T09:32:43;2.60;;;1.73;;
46318;SDS011;32042;50.916;2.926;2023-07-29T09:35:10;1.42;;;1.35;;
46318;SDS011;32042;50.916;2.926;2023-07-29T09:37:37;2.17;;;1.70;;
46318;SDS011;32042;50.916;2.926;2023-07-29T09:40:03;1.60;;;1.50;;
46318;SDS011;32042;50.916;2.926;2023-07-29T09:42:30;1.63;;;1.52;;
46318;SDS011;32042;50.916;2.926;2023-07-29T09:44:56;2.53;;;1.95;;
46318;SDS011;32042;50.916;2.926;2023-07-29T09:47:23;2.67;;;1.63;;
46318;SDS011;32042;50.916;2.926;2023-07-29T09:49:49;1.48;;;1.38;;
46318;SDS011;32042;50.916;2.926;2023-07-29T09:52:19;1.40;;;1.30;;
46318;SDS011;32042;50.916;2.926;2023-07-29T09:54:46;1.50;;;1.40;;
46318;SDS011;32042;50.916;2.926;2023-07-29T09:57:18;2.67;;;1.63;;
46318;SDS011;32042;50.916;2.926;2023-07-29T09:59:54;2.35;;;1.77;;
46318;SDS011;32042;50.916;2.926;2023-07-29T10:02:20;2.17;;;1.88;;
46318;SDS011;32042;50.916;2.926;2023-07-29T10:04:47;2.80;;;1.55;;
46318;SDS011;32042;50.916;2.926;2023-07-29T10:07:13;2.22;;;1.63;;
46318;SDS011;32042;50.916;2.926;2023-07-29T10:09:40;1.63;;;1.52;;
46318;SDS011;32042;50.916;2.926;2023-07-29T10:12:06;1.80;;;1.70;;
46318;SDS011;32042;50.916;2.926;2023-07-29T10:14:33;4.53;;;1.50;;
46318;SDS011;32042;50.916;2.926;2023-07-29T10:16:59;2.30;;;1.77;;
46318;SDS011;32042;50.916;2.926;2023-07-29T10:19:25;2.53;;;1.65;;
46318;SDS011;32042;50.916;2.926;2023-07-29T10:21:52;1.50;;;1.40;;
46318;SDS011;32042;50.916;2.926;2023-07-29T10:24:19;2.28;;;1.65;;
46318;SDS011;32042;50.916;2.926;2023-07-29T10:26:53;1.25;;;1.17;;
46318;SDS011;32042;50.916;2.926;2023-07-29T10:29:20;1.88;;;1.20;;
46318;SDS011;32042;50.916;2.926;2023-07-29T10:31:49;1.70;;;1.20;;
46318;SDS011;32042;50.916;2.926;2023-07-29T10:34:20;1.73;;;1.35;;
46318;SDS011;32042;50.916;2.926;2023-07-29T10:36:48;1.40;;;1.05;;
46318;SDS011;32042;50.916;2.926;2023-07-29T10:39:14;1.63;;;1.30;;
46318;SDS011;32042;50.916;2.926;2023-07-29T10:41:59;2.08;;;1.60;;
46318;SDS011;32042;50.916;2.926;2023-07-29T10:47:11;1.60;;;1.20;;
46318;SDS011;32042;50.916;2.926;2023-07-29T10:49:39;1.15;;;1.00;;
46318;SDS011;32042;50.916;2.926;2023-07-29T10:52:06;2.05;;;1.35;;
46318;SDS011;32042;50.916;2.926;2023-07-29T10:54:53;1.63;;;1.20;;
46318;SDS011;32042;50.916;2.926;2023-07-29T10:57:30;1.13;;;1.00;;
46318;SDS011;32042;50.916;2.926;2023-07-29T10:59:57;1.65;;;1.30;;
46318;SDS011;32042;50.916;2.926;2023-07-29T11:02:30;2.22;;;1.48;;
46318;SDS011;32042;50.916;2.926;2023-07-29T11:04:56;1.60;;;1.00;;
46318;SDS011;32042;50.916;2.926;2023-07-29T11:07:23;1.88;;;1.23;;
46318;SDS011;32042;50.916;2.926;2023-07-29T11:15:04;2.05;;;1.85;;
46318;SDS011;32042;50.916;2.926;2023-07-29T11:17:32;0.98;;;0.95;;
46318;SDS011;32042;50.916;2.926;2023-07-29T11:20:01;2.47;;;1.30;;
46318;SDS011;32042;50.916;2.926;2023-07-29T11:22:29;2.08;;;1.17;;
46318;SDS011;32042;50.916;2.926;2023-07-29T11:24:55;2.92;;;1.20;;
46318;SDS011;32042;50.916;2.926;2023-07-29T11:27:21;1.52;;;1.00;;
46318;SDS011;32042;50.916;2.926;2023-07-29T11:29:47;2.65;;;1.00;;
46318;SDS011;32042;50.916;2.926;2023-07-29T11:32:13;1.98;;;1.20;;
46318;SDS011;32042;50.916;2.926;2023-07-29T11:34:41;1.52;;;0.98;;
46318;SDS011;32042;50.916;2.926;2023-07-29T11:37:10;1.13;;;1.02;;
46318;SDS011;32042;50.916;2.926;2023-07-29T11:39:41;1.33;;;1.15;;
46318;SDS011;32042;50.916;2.926;2023-07-29T11:42:07;1.92;;;0.90;;
46318;SDS011;32042;50.916;2.926;2023-07-29T11:44:36;0.93;;;0.60;;
46318;SDS011;32042;50.916;2.926;2023-07-29T11:47:05;3.15;;;1.08;;
46318;SDS011;32042;50.916;2.926;2023-07-29T11:49:35;3.65;;;1.30;;
46318;SDS011;32042;50.916;2.926;2023-07-29T11:52:02;2.72;;;1.23;;
46318;SDS011;32042;50.916;2.926;2023-07-29T11:54:29;2.70;;;0.90;;
46318;SDS011;32042;50.916;2.926;2023-07-29T11:56:55;1.95;;;1.15;;
46318;SDS011;32042;50.916;2.926;2023-07-29T11:59:20;2.03;;;1.10;;
46318;SDS011;32042;50.916;2.926;2023-07-29T12:01:46;2.75;;;1.10;;
46318;SDS011;32042;50.916;2.926;2023-07-29T12:04:12;2.92;;;0.80;;
46318;SDS011;32042;50.916;2.926;2023-07-29T12:06:39;1.02;;;0.95;;
46318;SDS011;32042;50.916;2.926;2023-07-29T12:09:05;1.08;;;0.90;;
46318;SDS011;32042;50.916;2.926;2023-07-29T12:11:30;1.95;;;1.00;;
46318;SDS011;32042;50.916;2.926;2023-07-29T12:13:59;1.30;;;1.10;;
46318;SDS011;32042;50.916;2.926;2023-07-29T12:16:25;2.70;;;1.25;;
46318;SDS011;32042;50.916;2.926;2023-07-29T12:18:51;0.85;;;0.85;;
46318;SDS011;32042;50.916;2.926;2023-07-29T12:21:17;0.93;;;0.80;;
46318;SDS011;32042;50.916;2.926;2023-07-29T12:23:44;1.00;;;0.70;;
46318;SDS011;32042;50.916;2.926;2023-07-29T12:26:10;0.70;;;0.70;;
46318;SDS011;32042;50.916;2.926;2023-07-29T12:28:35;1.13;;;0.68;;
46318;SDS011;32042;50.916;2.926;2023-07-29T12:31:01;1.17;;;1.02;;
46318;SDS011;32042;50.916;2.926;2023-07-29T12:33:36;1.60;;;1.27;;
46318;SDS011;32042;50.916;2.926;2023-07-29T12:36:07;1.85;;;1.20;;
46318;SDS011;32042;50.916;2.926;2023-07-29T12:38:33;1.25;;;0.98;;
46318;SDS011;32042;50.916;2.926;2023-07-29T12:40:58;3.13;;;1.30;;
46318;SDS011;32042;50.916;2.926;2023-07-29T12:43:24;1.98;;;1.33;;
46318;SDS011;32042;50.916;2.926;2023-07-29T12:45:50;0.98;;;0.90;;
46318;SDS011;32042;50.916;2.926;2023-07-29T12:48:16;1.08;;;0.60;;
46318;SDS011;32042;50.916;2.926;2023-07-29T12:50:42;0.60;;;0.60;;
46318;SDS011;32042;50.916;2.926;2023-07-29T12:53:08;0.70;;;0.70;;
46318;SDS011;32042;50.916;2.926;2023-07-29T12:55:37;0.60;;;0.60;;
46318;SDS011;32042;50.916;2.926;2023-07-29T12:58:03;0.57;;;0.50;;
46318;SDS011;32042;50.916;2.926;2023-07-29T13:00:29;1.55;;;0.75;;
46318;SDS011;32042;50.916;2.926;2023-07-29T13:02:55;0.88;;;0.60;;
46318;SDS011;32042;50.916;2.926;2023-07-29T13:05:21;1.15;;;0.80;;
46318;SDS011;32042;50.916;2.926;2023-07-29T13:07:47;0.65;;;0.65;;
46318;SDS011;32042;50.916;2.926;2023-07-29T13:10:13;1.38;;;0.70;;
46318;SDS011;32042;50.916;2.926;2023-07-29T13:12:39;0.52;;;0.50;;
46318;SDS011;32042;50.916;2.926;2023-07-29T13:15:05;1.45;;;0.50;;
46318;SDS011;32042;50.916;2.926;2023-07-29T13:17:32;0.57;;;0.55;;
46318;SDS011;32042;50.916;2.926;2023-07-29T13:19:58;1.40;;;0.90;;
46318;SDS011;32042;50.916;2.926;2023-07-29T13:22:24;2.25;;;0.90;;
46318;SDS011;32042;50.916;2.926;2023-07-29T13:24:50;3.20;;;0.70;;
46318;SDS011;32042;50.916;2.926;2023-07-29T13:27:16;1.20;;;0.80;;
46318;SDS011;32042;50.916;2.926;2023-07-29T13:29:41;2.17;;;1.02;;
46318;SDS011;32042;50.916;2.926;2023-07-29T13:32:08;3.40;;;1.23;;
46318;SDS011;32042;50.916;2.926;2023-07-29T13:34:34;1.98;;;1.15;;
46318;SDS011;32042;50.916;2.926;2023-07-29T13:37:00;3.13;;;1.40;;
46318;SDS011;32042;50.916;2.926;2023-07-29T13:39:26;1.92;;;1.10;;
46318;SDS011;32042;50.916;2.926;2023-07-29T13:41:52;1.67;;;1.17;;
46318;SDS011;32042;50.916;2.926;2023-07-29T13:44:18;1.45;;;1.10;;
46318;SDS011;32042;50.916;2.926;2023-07-29T13:46:44;2.38;;;1.00;;
46318;SDS011;32042;50.916;2.926;2023-07-29T13:49:10;5.28;;;1.02;;
46318;SDS011;32042;50.916;2.926;2023-07-29T13:51:36;4.15;;;1.27;;
46318;SDS011;32042;50.916;2.926;2023-07-29T13:54:02;1.90;;;1.35;;
46318;SDS011;32042;50.916;2.926;2023-07-29T13:56:27;3.47;;;1.40;;
46318;SDS011;32042;50.916;2.926;2023-07-29T13:58:53;2.28;;;1.35;;
46318;SDS011;32042;50.916;2.926;2023-07-29T14:01:19;2.42;;;1.38;;
46318;SDS011;32042;50.916;2.926;2023-07-29T14:03:44;2.00;;;1.38;;
46318;SDS011;32042;50.916;2.926;2023-07-29T14:06:10;2.80;;;1.25;;
46318;SDS011;32042;50.916;2.926;2023-07-29T14:08:36;3.00;;;1.30;;
46318;SDS011;32042;50.916;2.926;2023-07-29T14:11:01;3.80;;;1.40;;
46318;SDS011;32042;50.916;2.926;2023-07-29T14:13:27;2.78;;;1.50;;
46318;SDS011;32042;50.916;2.926;2023-07-29T14:15:53;6.55;;;1.90;;
46318;SDS011;32042;50.916;2.926;2023-07-29T14:18:19;4.35;;;1.30;;
46318;SDS011;32042;50.916;2.926;2023-07-29T14:20:44;3.35;;;1.80;;
46318;SDS011;32042;50.916;2.926;2023-07-29T14:23:10;4.85;;;1.85;;
46318;SDS011;32042;50.916;2.926;2023-07-29T14:25:36;3.00;;;1.45;;
46318;SDS011;32042;50.916;2.926;2023-07-29T14:28:02;3.05;;;1.25;;
46318;SDS011;32042;50.916;2.926;2023-07-29T14:30:28;4.72;;;1.52;;
46318;SDS011;32042;50.916;2.926;2023-07-29T14:32:53;3.15;;;1.60;;
46318;SDS011;32042;50.916;2.926;2023-07-29T14:35:19;5.45;;;1.90;;
46318;SDS011;32042;50.916;2.926;2023-07-29T14:37:45;3.22;;;1.70;;
46318;SDS011;32042;50.916;2.926;2023-07-29T14:40:10;3.25;;;1.70;;
46318;SDS011;32042;50.916;2.926;2023-07-29T14:42:36;6.80;;;1.80;;
46318;SDS011;32042;50.916;2.926;2023-07-29T14:45:02;2.38;;;1.30;;
46318;SDS011;32042;50.916;2.926;2023-07-29T14:47:29;3.25;;;1.52;;
46318;SDS011;32042;50.916;2.926;2023-07-29T14:50:00;4.75;;;1.70;;
46318;SDS011;32042;50.916;2.926;2023-07-29T14:52:27;4.30;;;1.55;;
46318;SDS011;32042;50.916;2.926;2023-07-29T14:54:53;3.40;;;1.17;;
46318;SDS011;32042;50.916;2.926;2023-07-29T14:57:18;6.70;;;1.77;;